Time,TemperatureF,DewpointF,PressureIn,WindDirection,WindDirectionDegrees,WindSpeedMPH,WindSpeedGustMPH,Humidity,HourlyPrecipIn,Conditions,Clouds,dailyrainin,SolarRadiationWatts/m^2,SoftwareType,DateUTC
2013-06-09 00:03:00,59.5,55.0,29.78,WSW,255,1.4,3.0,85,0.00,OVC,,0.00,0.0,WeatherDisplay:10.37,2013-06-09 07:03:00,
2013-06-09 00:08:00,59.5,55.0,29.79,WSW,255,0.3,1.2,85,0.00,OVC,,0.00,0.0,WeatherDisplay:10.37,2013-06-09 07:08:00,
2013-06-09 00:13:00,59.5,55.0,29.78,WSW,254,0.0,2.3,85,0.00,OVC,,0.00,0.0,WeatherDisplay:10.37,2013-06-09 07:13:00,
2013-06-09 00:18:00,59.6,55.1,29.78,WSW,255,0.0,1.2,85,0.00,OVC,,0.00,0.0,WeatherDisplay:10.37,2013-06-09 07:18:00,
2013-06-09 00:23:00,59.6,55.1,29.78,WSW,255,0.0,1.2,85,0.00,OVC,,0.00,0.0,WeatherDisplay:10.37,2013-06-09 07:23:00,
2013-06-09 00:28:00,59.6,55.1,29.79,WSW,255,0.0,0.0,85,0.00,OVC,,0.00,0.0,WeatherDisplay:10.37,2013-06-09 07:28:00,
2013-06-09 00:33:00,59.6,55.1,29.78,WSW,256,0.5,3.5,85,0.00,OVC,,0.00,0.0,WeatherDisplay:10.37,2013-06-09 07:33:00,
2013-06-09 00:38:00,59.5,55.0,29.79,WSW,256,0.0,2.3,85,0.00,OVC,,0.00,0.0,WeatherDisplay:10.37,2013-06-09 07:38:00,
2013-06-09 00:43:00,59.4,54.9,29.79,NW,317,2.0,3.0,85,0.00,OVC,,0.00,0.0,WeatherDisplay:10.37,2013-06-09 07:43:00,
2013-06-09 00:48:00,59.3,54.8,29.79,WSW,243,1.1,3.5,85,0.00,OVC,,0.00,0.0,WeatherDisplay:10.37,2013-06-09 07:48:00,
2013-06-09 00:53:00,59.3,54.8,29.79,WSW,248,0.3,2.0,85,0.00,OVC,,0.00,0.0,WeatherDisplay:10.37,2013-06-09 07:53:00,
2013-06-09 00:58:00,59.2,54.7,29.79,WSW,256,2.3,4.6,85,0.00,OVC,,0.00,0.0,WeatherDisplay:10.37,2013-06-09 07:58:00,
2013-06-09 01:03:00,59.1,54.9,29.79,NW,306,2.1,4.6,86,0.00,OVC,,0.00,0.0,WeatherDisplay:10.37,2013-06-09 08:03:00,
2013-06-09 01:08:00,59.0,54.8,29.79,West,272,4.3,5.8,86,0.00,OVC,,0.00,0.0,WeatherDisplay:10.37,2013-06-09 08:08:00,
2013-06-09 01:13:00,58.9,54.7,29.79,West,275,3.7,4.6,86,0.00,OVC,,0.00,0.0,WeatherDisplay:10.37,2013-06-09 08:13:00,
2013-06-09 01:18:00,58.7,54.5,29.79,WSW,247,1.8,6.9,86,0.00,OVC,,0.00,0.0,WeatherDisplay:10.37,2013-06-09 08:18:00,
2013-06-09 01:23:00,58.7,54.8,29.79,WNW,290,1.9,4.0,87,0.00,OVC,,0.00,0.0,WeatherDisplay:10.37,2013-06-09 08:23:00,
2013-06-09 01:28:00,58.6,54.7,29.79,West,269,1.2,4.6,87,0.00,OVC,,0.00,0.0,WeatherDisplay:10.37,2013-06-09 08:28:00,
2013-06-09 01:33:00,58.5,54.6,29.79,SW,225,3.4,6.9,87,0.00,OVC,,0.00,0.0,WeatherDisplay:10.37,2013-06-09 08:33:00,
2013-06-09 01:39:00,58.5,54.6,29.79,WSW,237,2.3,5.8,87,0.00,OVC,,0.00,0.0,WeatherDisplay:10.37,2013-06-09 08:39:00,
2013-06-09 01:44:00,58.4,54.5,29.79,WSW,240,4.7,6.9,87,0.00,OVC,,0.00,0.0,WeatherDisplay:10.37,2013-06-09 08:44:00,
2013-06-09 01:49:00,58.4,54.5,29.79,SW,224,3.8,6.9,87,0.00,OVC,,0.00,0.0,WeatherDisplay:10.37,2013-06-09 08:49:00,
2013-06-09 01:54:00,58.3,54.8,29.79,SW,233,2.9,6.0,88,0.00,OVC,,0.00,0.0,WeatherDisplay:10.37,2013-06-09 08:54:00,
2013-06-09 01:59:00,58.2,54.7,29.79,SW,226,3.6,6.9,88,0.00,OVC,,0.00,0.0,WeatherDisplay:10.37,2013-06-09 08:59:00,
2013-06-09 02:04:00,58.2,54.7,29.79,SW,225,1.1,4.6,88,0.00,OVC,,0.00,0.0,WeatherDisplay:10.37,2013-06-09 09:04:00,
2013-06-09 02:09:00,58.1,54.6,29.79,WSW,239,1.7,5.8,88,0.00,OVC,,0.00,0.0,WeatherDisplay:10.37,2013-06-09 09:09:00,
2013-06-09 02:14:00,58.1,54.6,29.79,WNW,286,5.0,9.2,88,0.00,OVC,,0.00,0.0,WeatherDisplay:10.37,2013-06-09 09:14:00,
2013-06-09 02:19:00,58.0,54.5,29.79,WSW,247,5.5,10.4,88,0.00,OVC,,0.00,0.0,WeatherDisplay:10.37,2013-06-09 09:19:00,
2013-06-09 02:24:00,57.8,54.6,29.79,WNW,296,3.1,3.5,89,0.00,OVC,,0.00,0.0,WeatherDisplay:10.37,2013-06-09 09:24:00,
2013-06-09 02:29:00,57.8,54.6,29.79,WNW,298,0.0,0.0,89,0.00,OVC,,0.00,0.0,WeatherDisplay:10.37,2013-06-09 09:29:00,
2013-06-09 02:34:00,57.7,54.5,29.79,WSW,244,0.0,0.0,89,0.00,OVC,,0.00,0.0,WeatherDisplay:10.37,2013-06-09 09:34:00,
2013-06-09 02:39:00,57.7,54.5,29.79,West,278,0.0,0.0,89,0.00,OVC,,0.00,0.0,WeatherDisplay:10.37,2013-06-09 09:39:00,
2013-06-09 02:44:00,57.7,54.5,29.79,WNW,291,3.3,5.8,89,0.00,OVC,,0.00,0.0,WeatherDisplay:10.37,2013-06-09 09:44:00,
2013-06-09 02:49:00,57.7,54.5,29.79,West,266,4.4,5.8,89,0.00,OVC,,0.00,0.0,WeatherDisplay:10.37,2013-06-09 09:49:00,
2013-06-09 02:54:00,57.7,54.5,29.80,WNW,294,3.9,4.6,89,0.00,OVC,,0.00,0.0,WeatherDisplay:10.37,2013-06-09 09:54:00,
2013-06-09 02:59:00,57.7,54.5,29.80,WNW,286,3.4,4.6,89,0.00,OVC,,0.00,0.0,WeatherDisplay:10.37,2013-06-09 09:59:00,
2013-06-09 03:04:00,57.6,54.4,29.80,SW,227,4.0,4.0,89,0.00,OVC,,0.00,0.0,WeatherDisplay:10.37,2013-06-09 10:04:00,
2013-06-09 03:09:00,57.6,54.4,29.80,West,278,0.8,3.5,89,0.00,OVC,,0.00,0.0,WeatherDisplay:10.37,2013-06-09 10:09:00,
2013-06-09 03:14:00,57.5,54.3,29.80,West,264,2.9,5.0,89,0.00,OVC,,0.00,0.0,WeatherDisplay:10.37,2013-06-09 10:14:00,
2013-06-09 03:19:00,57.4,54.5,29.80,West,269,1.7,4.0,90,0.00,OVC,,0.00,0.0,WeatherDisplay:10.37,2013-06-09 10:19:00,
2013-06-09 03:24:00,57.3,54.4,29.80,WNW,293,1.9,3.5,90,0.00,OVC,,0.00,0.0,WeatherDisplay:10.37,2013-06-09 10:24:00,
2013-06-09 03:29:00,57.4,54.5,29.80,WSW,248,1.7,3.5,90,0.00,OVC,,0.00,0.0,WeatherDisplay:10.37,2013-06-09 10:29:00,
2013-06-09 03:34:00,57.3,54.4,29.80,SW,229,2.5,5.0,90,0.00,OVC,,0.00,0.0,WeatherDisplay:10.37,2013-06-09 10:34:00,
2013-06-09 03:39:00,57.3,54.4,29.80,SW,229,1.7,3.5,90,0.00,OVC,,0.00,0.0,WeatherDisplay:10.37,2013-06-09 10:39:00,
2013-06-09 03:44:00,57.3,54.4,29.79,WSW,244,2.9,4.6,90,0.00,OVC,,0.00,0.0,WeatherDisplay:10.37,2013-06-09 10:44:00,
2013-06-09 03:49:00,57.2,54.3,29.79,WSW,241,1.2,4.6,90,0.00,OVC,,0.00,0.0,WeatherDisplay:10.37,2013-06-09 10:49:00,
2013-06-09 03:54:00,57.2,54.3,29.79,SW,222,2.5,3.5,90,0.00,OVC,,0.00,0.0,WeatherDisplay:10.37,2013-06-09 10:54:00,
2013-06-09 03:59:00,57.1,54.2,29.79,WSW,258,4.2,8.1,90,0.00,OVC,,0.00,0.0,WeatherDisplay:10.37,2013-06-09 10:59:00,
2013-06-09 04:04:00,57.1,54.2,29.79,SSW,200,0.9,2.0,90,0.00,OVC,,0.00,0.0,WeatherDisplay:10.37,2013-06-09 11:04:00,
2013-06-09 04:09:00,57.0,54.1,29.79,WSW,244,5.2,10.4,90,0.00,OVC,,0.00,0.0,WeatherDisplay:10.37,2013-06-09 11:09:00,
2013-06-09 04:14:00,56.9,54.3,29.79,WNW,301,3.3,6.9,91,0.00,OVC,,0.00,0.0,WeatherDisplay:10.37,2013-06-09 11:14:00,
2013-06-09 04:19:00,56.9,54.3,29.79,SW,227,7.3,7.3,91,0.00,OVC,,0.00,0.0,WeatherDisplay:10.37,2013-06-09 11:19:00,
2013-06-09 04:24:00,56.9,54.3,29.79,SW,232,7.7,11.5,91,0.00,OVC,,0.00,0.0,WeatherDisplay:10.37,2013-06-09 11:24:00,
2013-06-09 04:30:00,56.8,54.2,29.79,WSW,241,6.0,12.0,91,0.00,OVC,,0.00,0.0,WeatherDisplay:10.37,2013-06-09 11:30:00,
2013-06-09 04:35:00,56.8,54.2,29.79,SW,230,8.0,11.5,91,0.00,OVC,,0.00,0.0,WeatherDisplay:10.37,2013-06-09 11:35:00,
2013-06-09 04:40:00,56.8,54.2,29.79,SW,231,8.0,16.0,91,0.00,OVC,,0.00,0.0,WeatherDisplay:10.37,2013-06-09 11:40:00,
2013-06-09 04:45:00,56.8,54.2,29.79,SW,236,6.1,11.5,91,0.00,OVC,,0.00,0.0,WeatherDisplay:10.37,2013-06-09 11:45:00,
2013-06-09 04:50:00,56.8,54.2,29.79,SW,233,5.0,12.0,91,0.00,OVC,,0.00,0.0,WeatherDisplay:10.37,2013-06-09 11:50:00,
2013-06-09 04:55:00,56.8,54.5,29.79,WSW,240,4.4,9.0,92,0.00,OVC,,0.00,0.0,WeatherDisplay:10.37,2013-06-09 11:55:00,
2013-06-09 05:00:00,56.8,54.5,29.79,WSW,241,8.0,13.0,92,0.00,OVC,,0.00,0.0,WeatherDisplay:10.37,2013-06-09 12:00:00,
2013-06-09 05:05:00,56.8,54.5,29.79,WSW,237,8.0,16.0,92,0.00,OVC,,0.00,0.0,WeatherDisplay:10.37,2013-06-09 12:05:00,
2013-06-09 05:09:00,56.8,54.5,29.79,SW,215,6.8,11.5,92,0.00,OVC,,0.00,0.0,WeatherDisplay:10.37,2013-06-09 12:09:00,
2013-06-09 05:14:00,56.8,54.5,29.80,SW,231,8.5,13.8,92,0.00,OVC,,0.00,0.0,WeatherDisplay:10.37,2013-06-09 12:14:00,
2013-06-09 05:19:00,56.8,54.5,29.80,SSW,211,13.2,13.8,92,0.00,OVC,,0.00,0.0,WeatherDisplay:10.37,2013-06-09 12:19:00,
2013-06-09 05:25:00,56.7,54.4,29.80,WSW,238,6.8,15.0,92,0.00,OVC,,0.00,0.0,WeatherDisplay:10.37,2013-06-09 12:25:00,
2013-06-09 05:30:00,56.7,54.4,29.80,West,264,6.3,11.5,92,0.00,OVC,,0.00,0.0,WeatherDisplay:10.37,2013-06-09 12:30:00,
2013-06-09 05:35:00,56.7,54.4,29.80,WSW,240,12.0,18.0,92,0.00,OVC,,0.00,0.0,WeatherDisplay:10.37,2013-06-09 12:35:00,
2013-06-09 05:40:00,56.7,54.4,29.80,SW,225,11.8,17.0,92,0.00,OVC,,0.00,0.0,WeatherDisplay:10.37,2013-06-09 12:40:00,
2013-06-09 05:45:00,56.6,54.3,29.80,SW,217,10.7,13.8,92,0.00,OVC,,0.00,0.0,WeatherDisplay:10.37,2013-06-09 12:45:00,
2013-06-09 05:50:00,56.6,54.3,29.80,WSW,239,9.2,15.0,92,0.00,BKN,,0.00,5.0,WeatherDisplay:10.37,2013-06-09 12:50:00,
2013-06-09 05:55:00,56.6,54.3,29.81,SW,229,12.0,16.0,92,0.00,BKN,,0.00,9.0,WeatherDisplay:10.37,2013-06-09 12:55:00,
2013-06-09 06:00:00,56.6,54.3,29.81,SW,230,12.0,17.0,92,0.00,BKN,,0.00,12.0,WeatherDisplay:10.37,2013-06-09 13:00:00,
2013-06-09 06:05:00,56.7,54.4,29.81,WSW,248,7.0,18.0,92,0.00,BKN,,0.00,16.0,WeatherDisplay:10.37,2013-06-09 13:05:00,
2013-06-09 06:10:00,56.7,54.4,29.81,SW,227,8.0,10.0,92,0.00,BKN,,0.00,23.0,WeatherDisplay:10.37,2013-06-09 13:10:00,
2013-06-09 06:15:00,56.8,54.5,29.81,WSW,249,7.2,13.8,92,0.00,BKN,,0.00,35.0,WeatherDisplay:10.37,2013-06-09 13:15:00,
2013-06-09 06:20:00,56.9,54.6,29.81,WSW,239,10.0,14.0,92,0.00,SCT,,0.00,60.0,WeatherDisplay:10.37,2013-06-09 13:20:00,
2013-06-09 06:25:00,56.9,54.6,29.82,WSW,247,11.2,15.0,92,0.00,SCT,,0.00,72.0,WeatherDisplay:10.37,2013-06-09 13:25:00,
2013-06-09 06:30:00,56.9,54.6,29.82,West,262,10.7,16.1,92,0.00,BKN,,0.00,47.0,WeatherDisplay:10.37,2013-06-09 13:30:00,
2013-06-09 06:35:00,56.9,54.6,29.82,WSW,245,10.0,17.0,92,0.00,BKN,,0.00,69.0,WeatherDisplay:10.37,2013-06-09 13:35:00,
2013-06-09 06:40:00,56.9,54.6,29.82,SW,228,8.4,12.7,92,0.00,BKN,,0.00,76.0,WeatherDisplay:10.37,2013-06-09 13:40:00,
2013-06-09 06:45:00,56.9,54.6,29.82,SW,234,12.0,20.0,92,0.00,BKN,,0.00,74.0,WeatherDisplay:10.37,2013-06-09 13:45:00,
2013-06-09 06:50:00,56.9,54.6,29.82,SW,233,5.9,9.2,92,0.00,BKN,,0.00,81.0,WeatherDisplay:10.37,2013-06-09 13:50:00,
2013-06-09 06:55:00,56.9,54.6,29.82,WSW,242,7.0,18.0,92,0.00,BKN,,0.00,90.0,WeatherDisplay:10.37,2013-06-09 13:55:00,
2013-06-09 06:59:00,56.9,54.6,29.83,SW,217,7.9,10.4,92,0.00,BKN,,0.00,114.0,WeatherDisplay:10.37,2013-06-09 13:59:00,
2013-06-09 07:05:00,56.9,54.6,29.83,SW,216,11.5,15.0,92,0.00,BKN,,0.00,102.0,WeatherDisplay:10.37,2013-06-09 14:05:00,
2013-06-09 07:10:00,56.9,54.6,29.83,WSW,249,7.5,11.5,92,0.00,BKN,,0.00,142.0,WeatherDisplay:10.37,2013-06-09 14:10:00,
2013-06-09 07:15:00,57.0,54.7,29.83,WSW,242,8.1,10.4,92,0.00,BKN,,0.00,116.0,WeatherDisplay:10.37,2013-06-09 14:15:00,
2013-06-09 07:20:00,57.1,54.8,29.83,WSW,246,7.0,13.0,92,0.00,BKN,,0.00,151.0,WeatherDisplay:10.37,2013-06-09 14:20:00,
2013-06-09 07:25:00,57.2,54.9,29.83,WSW,242,5.7,8.1,92,0.00,BKN,,0.00,125.0,WeatherDisplay:10.37,2013-06-09 14:25:00,
2013-06-09 07:30:00,57.3,54.7,29.83,SW,230,8.0,15.0,91,0.00,BKN,,0.00,116.0,WeatherDisplay:10.37,2013-06-09 14:30:00,
2013-06-09 07:35:00,57.3,54.7,29.83,SW,229,8.5,15.0,91,0.00,BKN,,0.00,127.0,WeatherDisplay:10.37,2013-06-09 14:35:00,
2013-06-09 07:40:00,57.5,54.9,29.83,WSW,254,7.2,12.0,91,0.00,BKN,,0.00,146.0,WeatherDisplay:10.37,2013-06-09 14:40:00,
2013-06-09 07:45:00,57.5,54.9,29.83,SW,231,8.0,18.0,91,0.00,BKN,,0.00,190.0,WeatherDisplay:10.37,2013-06-09 14:45:00,
2013-06-09 07:50:00,57.5,54.9,29.83,SW,227,7.7,13.8,91,0.00,SCT,,0.00,227.0,WeatherDisplay:10.37,2013-06-09 14:50:00,
2013-06-09 07:55:00,57.7,55.1,29.83,SW,229,7.0,16.0,91,0.00,SCT,,0.00,265.0,WeatherDisplay:10.37,2013-06-09 14:55:00,
2013-06-09 08:00:00,57.8,54.9,29.84,SW,236,4.6,10.4,90,0.00,SCT,,0.00,258.0,WeatherDisplay:10.37,2013-06-09 15:00:00,
2013-06-09 08:05:00,58.0,55.1,29.84,WSW,240,7.0,15.0,90,0.00,SCT,,0.00,221.0,WeatherDisplay:10.37,2013-06-09 15:05:00,
2013-06-09 08:10:00,58.1,55.2,29.84,SW,235,6.0,12.7,90,0.00,SCT,,0.00,343.0,WeatherDisplay:10.37,2013-06-09 15:10:00,
2013-06-09 08:15:00,58.2,55.3,29.84,SW,234,9.0,18.0,90,0.00,SCT,,0.00,401.0,WeatherDisplay:10.37,2013-06-09 15:15:00,
2013-06-09 08:20:00,58.3,56.0,29.84,SW,231,9.5,12.7,92,0.00,SCT,,0.00,339.0,WeatherDisplay:10.37,2013-06-09 15:20:00,
2013-06-09 08:25:00,58.5,55.3,29.84,SW,233,9.0,14.0,89,0.00,SCT,,0.00,267.0,WeatherDisplay:10.37,2013-06-09 15:25:00,
2013-06-09 08:30:00,58.7,55.5,29.84,SW,215,9.7,13.8,89,0.00,SCT,,0.00,373.0,WeatherDisplay:10.37,2013-06-09 15:30:00,
2013-06-09 08:35:00,58.9,55.4,29.85,West,269,9.1,11.5,88,0.00,SCT,,0.00,397.0,WeatherDisplay:10.37,2013-06-09 15:35:00,
2013-06-09 08:40:00,58.8,55.3,29.84,SW,224,8.1,11.5,88,0.00,SCT,,0.00,359.0,WeatherDisplay:10.37,2013-06-09 15:40:00,
2013-06-09 08:45:00,59.0,55.4,29.84,SW,221,4.8,13.8,88,0.00,SCT,,0.00,538.0,WeatherDisplay:10.37,2013-06-09 15:45:00,
2013-06-09 08:50:00,59.3,55.4,29.84,SW,234,13.0,20.0,87,0.00,CLR,,0.00,464.0,WeatherDisplay:10.37,2013-06-09 15:50:00,
2013-06-09 08:55:00,59.5,55.6,29.84,SW,233,7.9,16.1,87,0.00,FEW,,0.00,464.0,WeatherDisplay:10.37,2013-06-09 15:55:00,
2013-06-09 09:00:00,59.9,55.7,29.84,West,271,4.8,11.5,86,0.00,FEW,,0.00,548.0,WeatherDisplay:10.37,2013-06-09 16:00:00,
2013-06-09 09:05:00,60.1,55.6,29.84,West,268,11.7,17.3,85,0.00,FEW,,0.00,401.0,WeatherDisplay:10.37,2013-06-09 16:05:00,
2013-06-09 09:10:00,59.8,55.3,29.85,SW,234,8.0,15.0,85,0.00,SCT,,0.00,322.0,WeatherDisplay:10.37,2013-06-09 16:10:00,
2013-06-09 09:15:00,59.5,55.3,29.85,SW,224,10.1,15.0,86,0.00,SCT,,0.00,410.0,WeatherDisplay:10.37,2013-06-09 16:15:00,
2013-06-09 09:20:00,59.5,55.6,29.85,SW,231,12.8,19.6,87,0.00,SCT,,0.00,538.0,WeatherDisplay:10.37,2013-06-09 16:20:00,
2013-06-09 09:25:00,59.5,55.6,29.85,SSW,210,7.0,13.8,87,0.00,SCT,,0.00,487.0,WeatherDisplay:10.37,2013-06-09 16:25:00,
2013-06-09 09:30:00,59.5,55.6,29.85,SW,219,12.3,15.0,87,0.00,SCT,,0.00,496.0,WeatherDisplay:10.37,2013-06-09 16:30:00,
2013-06-09 09:35:00,59.5,55.6,29.85,SW,227,10.1,17.3,87,0.00,SCT,,0.00,524.0,WeatherDisplay:10.37,2013-06-09 16:35:00,
2013-06-09 09:40:00,59.8,55.9,29.85,SW,236,10.4,16.1,87,0.00,SCT,,0.00,420.0,WeatherDisplay:10.37,2013-06-09 16:40:00,
2013-06-09 09:45:00,59.7,55.5,29.85,WSW,241,10.0,16.1,86,0.00,SCT,,0.00,374.0,WeatherDisplay:10.37,2013-06-09 16:45:00,
2013-06-09 09:50:00,59.5,55.3,29.85,SW,232,10.3,13.8,86,0.00,BKN,,0.00,448.0,WeatherDisplay:10.37,2013-06-09 16:50:00,
2013-06-09 09:55:00,59.5,55.3,29.85,WSW,256,11.4,19.6,86,0.00,SCT,,0.00,548.0,WeatherDisplay:10.37,2013-06-09 16:55:00,
2013-06-09 10:00:00,59.5,55.6,29.85,SW,227,7.2,11.0,87,0.00,SCT,,0.00,552.0,WeatherDisplay:10.37,2013-06-09 17:00:00,
2013-06-09 10:05:00,60.0,56.1,29.85,WSW,240,11.2,16.1,87,0.00,FEW,,0.00,554.0,WeatherDisplay:10.37,2013-06-09 17:05:00,
2013-06-09 10:10:00,60.0,55.5,29.84,WSW,250,11.6,18.4,85,0.00,CLR,,0.00,803.0,WeatherDisplay:10.37,2013-06-09 17:10:00,
2013-06-09 10:15:00,60.0,55.8,29.85,SW,216,13.0,19.6,86,0.00,CLR,,0.00,851.0,WeatherDisplay:10.37,2013-06-09 17:15:00,
2013-06-09 10:20:00,60.3,56.1,29.84,WSW,244,4.5,10.4,86,0.00,CLR,,0.00,863.0,WeatherDisplay:10.37,2013-06-09 17:20:00,
2013-06-09 10:25:00,60.9,56.4,29.84,WSW,243,6.6,11.5,85,0.00,CLR,,0.00,745.0,WeatherDisplay:10.37,2013-06-09 17:25:00,
2013-06-09 10:30:00,61.0,55.8,29.84,SW,222,7.7,12.7,83,0.00,CLR,,0.00,577.0,WeatherDisplay:10.37,2013-06-09 17:30:00,
2013-06-09 10:35:00,60.5,55.3,29.84,SW,223,9.9,16.1,83,0.00,FEW,,0.00,837.0,WeatherDisplay:10.37,2013-06-09 17:35:00,
2013-06-09 10:40:00,60.6,55.7,29.84,WSW,255,9.8,17.3,84,0.00,FEW,,0.00,803.0,WeatherDisplay:10.37,2013-06-09 17:40:00,
2013-06-09 10:45:00,61.1,56.2,29.85,SW,223,6.7,9.2,84,0.00,FEW,,0.00,791.0,WeatherDisplay:10.37,2013-06-09 17:45:00,
2013-06-09 10:50:00,61.6,56.4,29.85,SW,233,9.6,13.0,83,0.00,FEW,,0.00,809.0,WeatherDisplay:10.37,2013-06-09 17:50:00,
2013-06-09 10:55:00,61.8,56.2,29.85,SSW,210,10.0,16.1,82,0.00,FEW,,0.00,802.0,WeatherDisplay:10.37,2013-06-09 17:55:00,
2013-06-09 11:00:00,62.1,56.5,29.85,West,272,9.1,11.5,82,0.00,FEW,,0.00,809.0,WeatherDisplay:10.37,2013-06-09 18:00:00,
2013-06-09 11:05:00,62.4,56.5,29.85,WSW,239,14.1,18.4,81,0.00,FEW,,0.00,821.0,WeatherDisplay:10.37,2013-06-09 18:05:00,
2013-06-09 11:10:00,62.5,56.6,29.85,SW,235,7.7,12.7,81,0.00,FEW,,0.00,826.0,WeatherDisplay:10.37,2013-06-09 18:10:00,
2013-06-09 11:15:00,63.0,56.7,29.85,SW,232,9.8,12.7,80,0.00,FEW,,0.00,840.0,WeatherDisplay:10.37,2013-06-09 18:15:00,
2013-06-09 11:20:00,63.5,56.9,29.85,WSW,248,6.0,11.5,79,0.00,FEW,,0.00,867.0,WeatherDisplay:10.37,2013-06-09 18:20:00,
2013-06-09 11:25:00,63.5,56.9,29.85,West,266,6.1,11.5,79,0.00,FEW,,0.00,886.0,WeatherDisplay:10.37,2013-06-09 18:25:00,
2013-06-09 11:30:00,63.2,56.6,29.85,WSW,256,6.6,12.7,79,0.00,FEW,,0.00,870.0,WeatherDisplay:10.37,2013-06-09 18:30:00,
2013-06-09 11:35:00,63.1,56.5,29.85,WSW,243,13.7,18.4,79,0.00,FEW,,0.00,881.0,WeatherDisplay:10.37,2013-06-09 18:35:00,
2013-06-09 11:40:00,63.1,56.1,29.85,WSW,256,10.9,19.6,78,0.00,FEW,,0.00,889.0,WeatherDisplay:10.37,2013-06-09 18:40:00,
2013-06-09 11:45:00,63.0,56.0,29.86,SW,235,10.7,21.0,78,0.00,FEW,,0.00,888.0,WeatherDisplay:10.37,2013-06-09 18:45:00,
2013-06-09 11:50:00,63.2,56.6,29.86,SW,216,10.6,18.4,79,0.00,FEW,,0.00,882.0,WeatherDisplay:10.37,2013-06-09 18:50:00,
2013-06-09 11:55:00,63.1,56.1,29.86,West,275,12.7,16.1,78,0.00,FEW,,0.00,838.0,WeatherDisplay:10.37,2013-06-09 18:55:00,
2013-06-09 12:00:00,62.5,55.9,29.86,WSW,237,16.9,24.2,79,0.00,FEW,,0.00,882.0,WeatherDisplay:10.37,2013-06-09 19:00:00,
2013-06-09 12:05:00,62.2,56.0,29.86,SW,224,12.6,18.4,80,0.00,FEW,,0.00,891.0,WeatherDisplay:10.37,2013-06-09 19:05:00,
2013-06-09 12:10:00,62.2,55.6,29.86,North,10,17.3,25.3,79,0.00,FEW,,0.00,889.0,WeatherDisplay:10.37,2013-06-09 19:10:00,
2013-06-09 12:15:00,61.9,55.7,29.86,WSW,237,16.5,23.0,80,0.00,FEW,,0.00,796.0,WeatherDisplay:10.37,2013-06-09 19:15:00,
2013-06-09 12:20:00,61.8,55.9,29.86,SSW,210,10.0,21.9,81,0.00,FEW,,0.00,898.0,WeatherDisplay:10.37,2013-06-09 19:20:00,
2013-06-09 12:25:00,62.3,56.0,29.86,SW,225,12.7,18.4,80,0.00,FEW,,0.00,840.0,WeatherDisplay:10.37,2013-06-09 19:25:00,
2013-06-09 12:30:00,63.1,56.5,29.86,SW,225,11.0,18.0,79,0.00,FEW,,0.00,905.0,WeatherDisplay:10.37,2013-06-09 19:30:00,
2013-06-09 12:35:00,63.4,56.4,29.86,SW,229,13.1,19.6,78,0.00,FEW,,0.00,912.0,WeatherDisplay:10.37,2013-06-09 19:35:00,
2013-06-09 12:40:00,63.4,56.4,29.86,SW,229,9.1,19.6,78,0.00,FEW,,0.00,919.0,WeatherDisplay:10.37,2013-06-09 19:40:00,
2013-06-09 12:45:00,63.6,56.3,29.86,SW,221,13.7,24.2,77,0.00,FEW,,0.00,937.0,WeatherDisplay:10.37,2013-06-09 19:45:00,
2013-06-09 12:50:00,63.4,56.1,29.86,WSW,248,15.5,24.2,77,0.00,FEW,,0.00,853.0,WeatherDisplay:10.37,2013-06-09 19:50:00,
2013-06-09 12:55:00,63.5,56.2,29.86,WSW,244,10.9,15.0,77,0.00,SCT,,0.00,784.0,WeatherDisplay:10.37,2013-06-09 19:55:00,
2013-06-09 13:00:00,63.4,56.1,29.86,WSW,237,11.3,23.0,77,0.00,SCT,,0.00,895.0,WeatherDisplay:10.37,2013-06-09 20:00:00,
2013-06-09 13:05:00,63.1,55.8,29.86,SW,219,15.3,24.2,77,0.00,SCT,,0.00,970.0,WeatherDisplay:10.37,2013-06-09 20:05:00,
2013-06-09 13:10:00,62.9,55.6,29.87,SSW,213,14.9,26.5,77,0.00,FEW,,0.00,979.0,WeatherDisplay:10.37,2013-06-09 20:10:00,
2013-06-09 13:15:00,62.5,55.5,29.86,WSW,252,18.2,31.1,78,0.00,FEW,,0.00,870.0,WeatherDisplay:10.37,2013-06-09 20:15:00,
2013-06-09 13:20:00,62.4,55.4,29.87,WSW,242,15.2,19.6,78,0.00,FEW,,0.00,918.0,WeatherDisplay:10.37,2013-06-09 20:20:00,
2013-06-09 13:25:00,63.0,56.0,29.87,SSW,209,11.9,17.3,78,0.00,FEW,,0.00,918.0,WeatherDisplay:10.37,2013-06-09 20:25:00,
2013-06-09 13:30:00,62.6,55.6,29.87,WSW,239,18.6,26.5,78,0.00,FEW,,0.00,817.0,WeatherDisplay:10.37,2013-06-09 20:30:00,
2013-06-09 13:36:00,62.2,56.0,29.86,SW,221,11.9,18.4,80,0.00,SCT,,0.00,993.0,WeatherDisplay:10.37,2013-06-09 20:36:00,
2013-06-09 13:41:00,62.2,55.6,29.87,WSW,250,14.6,24.2,79,0.00,FEW,,0.00,993.0,WeatherDisplay:10.37,2013-06-09 20:41:00,
2013-06-09 13:46:00,62.1,55.9,29.87,SW,227,12.9,25.3,80,0.00,CLR,,0.00,1099.0,WeatherDisplay:10.37,2013-06-09 20:46:00,
2013-06-09 13:51:00,62.0,55.4,29.87,WNW,284,17.0,21.9,79,0.00,CLR,,0.00,780.0,WeatherDisplay:10.37,2013-06-09 20:51:00,
2013-06-09 13:56:00,61.9,55.7,29.87,SW,223,13.0,18.4,80,0.00,FEW,,0.00,635.0,WeatherDisplay:10.37,2013-06-09 20:56:00,
2013-06-09 14:01:00,61.9,55.7,29.87,SW,228,6.4,16.1,80,0.00,SCT,,0.00,531.0,WeatherDisplay:10.37,2013-06-09 21:01:00,
2013-06-09 14:06:00,62.2,56.0,29.87,SW,232,7.9,11.5,80,0.00,BKN,,0.00,541.0,WeatherDisplay:10.37,2013-06-09 21:06:00,
2013-06-09 14:11:00,62.3,55.4,29.87,SW,229,14.8,19.6,78,0.00,BKN,,0.00,378.0,WeatherDisplay:10.37,2013-06-09 21:11:00,
2013-06-09 14:16:00,61.9,55.7,29.87,WSW,256,6.3,10.4,80,0.00,BKN,,0.00,367.0,WeatherDisplay:10.37,2013-06-09 21:16:00,
2013-06-09 14:21:00,61.8,55.6,29.86,West,267,9.6,15.0,80,0.00,BKN,,0.00,418.0,WeatherDisplay:10.37,2013-06-09 21:21:00,
2013-06-09 14:26:00,61.0,55.1,29.87,WSW,243,11.0,16.1,81,0.00,BKN,,0.00,265.0,WeatherDisplay:10.37,2013-06-09 21:26:00,
2013-06-09 14:31:00,60.7,55.2,29.87,SSW,204,10.1,17.3,82,0.00,BKN,,0.00,362.0,WeatherDisplay:10.37,2013-06-09 21:31:00,
2013-06-09 14:36:00,60.4,54.9,29.87,SW,227,7.2,12.7,82,0.00,BKN,,0.00,234.0,WeatherDisplay:10.37,2013-06-09 21:36:00,
2013-06-09 14:41:00,60.0,54.8,29.86,NNW,329,6.1,12.7,83,0.00,BKN,,0.00,278.0,WeatherDisplay:10.37,2013-06-09 21:41:00,
2013-06-09 14:46:00,60.0,55.2,29.87,WNW,283,10.3,15.0,84,0.00,BKN,,0.00,146.0,WeatherDisplay:10.37,2013-06-09 21:46:00,
2013-06-09 14:51:00,59.8,55.0,29.87,WNW,282,9.2,13.8,84,0.00,BKN,,0.00,302.0,WeatherDisplay:10.37,2013-06-09 21:51:00,
2013-06-09 14:56:00,60.0,55.2,29.87,WSW,243,3.9,6.9,84,0.00,BKN,,0.00,241.0,WeatherDisplay:10.37,2013-06-09 21:56:00,
2013-06-09 15:01:00,59.9,55.1,29.87,SW,231,5.4,9.2,84,0.00,BKN,,0.00,135.0,WeatherDisplay:10.37,2013-06-09 22:01:00,
2013-06-09 15:06:00,59.6,54.8,29.87,West,260,4.7,6.9,84,0.00,BKN,,0.00,209.0,WeatherDisplay:10.37,2013-06-09 22:06:00,
2013-06-09 15:11:00,59.6,55.1,29.86,SSW,206,10.7,16.1,85,0.00,BKN,,0.00,378.0,WeatherDisplay:10.37,2013-06-09 22:11:00,
2013-06-09 15:16:00,59.2,54.7,29.86,West,260,10.4,17.0,85,0.00,BKN,,0.00,246.0,WeatherDisplay:10.37,2013-06-09 22:16:00,
2013-06-09 15:22:00,58.8,54.6,29.87,WNW,286,8.3,18.4,86,0.00,BKN,,0.00,257.0,WeatherDisplay:10.37,2013-06-09 22:22:00,
2013-06-09 15:27:00,58.9,55.0,29.86,West,262,6.9,11.5,87,0.00,BKN,,0.00,339.0,WeatherDisplay:10.37,2013-06-09 22:27:00,
2013-06-09 15:32:00,59.0,55.1,29.86,SW,229,11.8,19.6,87,0.00,BKN,,0.00,279.0,WeatherDisplay:10.37,2013-06-09 22:32:00,
2013-06-09 15:37:00,58.8,54.6,29.86,West,271,10.6,17.3,86,0.00,BKN,,0.00,202.0,WeatherDisplay:10.37,2013-06-09 22:37:00,
2013-06-09 15:42:00,58.5,54.6,29.86,West,260,9.8,13.8,87,0.00,BKN,,0.00,290.0,WeatherDisplay:10.37,2013-06-09 22:42:00,
2013-06-09 15:47:00,58.5,55.0,29.86,SW,232,8.9,11.5,88,0.00,BKN,,0.00,255.0,WeatherDisplay:10.37,2013-06-09 22:47:00,
2013-06-09 15:52:00,58.7,55.2,29.86,WSW,256,8.4,11.5,88,0.00,BKN,,0.00,417.0,WeatherDisplay:10.37,2013-06-09 22:52:00,
2013-06-09 15:57:00,58.9,55.0,29.86,SSW,213,7.4,11.5,87,0.00,BKN,,0.00,200.0,WeatherDisplay:10.37,2013-06-09 22:57:00,
2013-06-09 16:02:00,58.9,55.0,29.86,WSW,242,7.2,15.0,87,0.00,BKN,,0.00,149.0,WeatherDisplay:10.37,2013-06-09 23:02:00,
2013-06-09 16:07:00,58.8,54.6,29.86,WSW,251,7.0,19.6,86,0.00,BKN,,0.00,213.0,WeatherDisplay:10.37,2013-06-09 23:07:00,
2013-06-09 16:12:00,58.6,55.1,29.85,WSW,246,2.8,5.8,88,0.00,BKN,,0.00,139.0,WeatherDisplay:10.37,2013-06-09 23:12:00,
2013-06-09 16:17:00,58.7,55.2,29.86,WNW,286,7.9,11.5,88,0.00,BKN,,0.00,118.0,WeatherDisplay:10.37,2013-06-09 23:17:00,
2013-06-09 16:22:00,58.6,55.1,29.86,SW,215,11.6,18.0,88,0.00,BKN,,0.00,151.0,WeatherDisplay:10.37,2013-06-09 23:22:00,
2013-06-09 16:27:00,58.4,54.9,29.85,SW,229,11.3,15.0,88,0.00,BKN,,0.00,172.0,WeatherDisplay:10.37,2013-06-09 23:27:00,
2013-06-09 16:32:00,58.3,54.8,29.86,SSW,197,8.5,17.3,88,0.00,BKN,,0.00,127.0,WeatherDisplay:10.37,2013-06-09 23:32:00,
2013-06-09 16:37:00,58.3,55.1,29.86,WSW,254,13.5,20.7,89,0.00,BKN,,0.00,186.0,WeatherDisplay:10.37,2013-06-09 23:37:00,
2013-06-09 16:42:00,58.2,55.0,29.86,SW,220,10.6,20.7,89,0.00,BKN,,0.00,151.0,WeatherDisplay:10.37,2013-06-09 23:42:00,
2013-06-09 16:47:00,58.3,55.1,29.86,WSW,246,10.8,15.0,89,0.00,BKN,,0.00,146.0,WeatherDisplay:10.37,2013-06-09 23:47:00,
2013-06-09 16:52:00,58.3,55.1,29.86,SW,228,9.3,15.0,89,0.00,BKN,,0.00,185.0,WeatherDisplay:10.37,2013-06-09 23:52:00,
2013-06-09 16:57:00,58.4,55.2,29.85,WSW,258,8.6,17.3,89,0.00,BKN,,0.00,299.0,WeatherDisplay:10.37,2013-06-09 23:57:00,
2013-06-09 17:02:00,58.6,55.1,29.85,WSW,239,12.4,24.2,88,0.00,BKN,,0.00,269.0,WeatherDisplay:10.37,2013-06-10 00:02:00,
2013-06-09 17:07:00,58.7,55.2,29.85,SW,222,11.6,24.2,88,0.00,BKN,,0.00,195.0,WeatherDisplay:10.37,2013-06-10 00:07:00,
2013-06-09 17:12:00,58.8,55.3,29.85,SW,215,10.6,18.4,88,0.00,BKN,,0.00,216.0,WeatherDisplay:10.37,2013-06-10 00:12:00,
2013-06-09 17:17:00,58.8,55.3,29.85,WSW,244,9.9,12.7,88,0.00,BKN,,0.00,260.0,WeatherDisplay:10.37,2013-06-10 00:17:00,
2013-06-09 17:22:00,58.9,55.4,29.85,WNW,301,3.7,13.8,88,0.00,BKN,,0.00,302.0,WeatherDisplay:10.37,2013-06-10 00:22:00,
2013-06-09 17:27:00,59.0,55.1,29.86,West,265,11.6,19.6,87,0.00,BKN,,0.00,213.0,WeatherDisplay:10.37,2013-06-10 00:27:00,
2013-06-09 17:32:00,59.1,55.2,29.86,NW,322,7.3,16.1,87,0.00,SCT,,0.00,302.0,WeatherDisplay:10.37,2013-06-10 00:32:00,
2013-06-09 17:37:00,59.1,55.2,29.85,WNW,285,11.1,18.4,87,0.00,SCT,,0.00,269.0,WeatherDisplay:10.37,2013-06-10 00:37:00,
2013-06-09 17:42:00,59.1,54.9,29.85,West,273,10.5,12.7,86,0.00,SCT,,0.00,206.0,WeatherDisplay:10.37,2013-06-10 00:42:00,
2013-06-09 17:47:00,59.3,55.1,29.86,SW,236,12.7,23.0,86,0.00,BKN,,0.00,142.0,WeatherDisplay:10.37,2013-06-10 00:47:00,
2013-06-09 17:52:00,59.2,54.7,29.85,WSW,240,8.3,15.0,85,0.00,BKN,,0.00,158.0,WeatherDisplay:10.37,2013-06-10 00:52:00,
2013-06-09 17:57:00,59.0,54.8,29.85,WSW,255,5.9,12.7,86,0.00,BKN,,0.00,120.0,WeatherDisplay:10.37,2013-06-10 00:57:00,
2013-06-09 18:02:00,58.8,54.6,29.85,WSW,257,11.3,23.0,86,0.00,BKN,,0.00,183.0,WeatherDisplay:10.37,2013-06-10 01:02:00,
2013-06-09 18:07:00,58.6,54.7,29.85,WSW,249,15.6,23.0,87,0.00,BKN,,0.00,204.0,WeatherDisplay:10.37,2013-06-10 01:07:00,
2013-06-09 18:12:00,58.6,54.7,29.85,WSW,251,13.6,21.9,87,0.00,SCT,,0.00,200.0,WeatherDisplay:10.37,2013-06-10 01:12:00,
2013-06-09 18:17:00,58.7,54.5,29.84,SSW,200,13.3,24.2,86,0.00,FEW,,0.00,176.0,WeatherDisplay:10.37,2013-06-10 01:17:00,
2013-06-09 18:22:00,58.8,54.6,29.85,SW,232,13.8,18.4,86,0.00,SCT,,0.00,174.0,WeatherDisplay:10.37,2013-06-10 01:22:00,
2013-06-09 18:27:00,58.8,54.6,29.85,SSW,202,7.2,13.8,86,0.00,SCT,,0.00,135.0,WeatherDisplay:10.37,2013-06-10 01:27:00,
2013-06-09 18:32:00,58.9,54.7,29.85,WSW,239,11.7,17.3,86,0.00,SCT,,0.00,139.0,WeatherDisplay:10.37,2013-06-10 01:32:00,
2013-06-09 18:37:00,58.9,54.7,29.84,SSW,199,13.2,19.6,86,0.00,BKN,,0.00,113.0,WeatherDisplay:10.37,2013-06-10 01:37:00,
2013-06-09 18:42:00,58.8,54.6,29.84,West,274,7.6,15.0,86,0.00,BKN,,0.00,114.0,WeatherDisplay:10.37,2013-06-10 01:42:00,
2013-06-09 18:47:00,58.8,54.6,29.84,WSW,248,12.9,16.0,86,0.00,BKN,,0.00,105.0,WeatherDisplay:10.37,2013-06-10 01:47:00,
2013-06-09 18:52:00,58.7,54.5,29.84,WSW,258,12.2,17.3,86,0.00,SCT,,0.00,162.0,WeatherDisplay:10.37,2013-06-10 01:52:00,
2013-06-09 18:57:00,58.8,54.6,29.84,SW,222,11.9,19.0,86,0.00,SCT,,0.00,113.0,WeatherDisplay:10.37,2013-06-10 01:57:00,
2013-06-09 19:02:00,58.8,54.6,29.85,West,267,11.0,19.6,86,0.00,SCT,,0.00,95.0,WeatherDisplay:10.37,2013-06-10 02:02:00,
2013-06-09 19:07:00,58.8,54.6,29.85,SW,232,10.0,12.7,86,0.00,SCT,,0.00,105.0,WeatherDisplay:10.37,2013-06-10 02:07:00,
2013-06-09 19:12:00,58.9,54.7,29.85,SSW,210,7.2,12.0,86,0.00,SCT,,0.00,67.0,WeatherDisplay:10.37,2013-06-10 02:12:00,
2013-06-09 19:17:00,58.7,54.5,29.85,WSW,246,12.0,19.6,86,0.00,SCT,,0.00,53.0,WeatherDisplay:10.37,2013-06-10 02:17:00,
2013-06-09 19:22:00,58.5,54.3,29.85,WSW,243,10.4,15.0,86,0.00,BKN,,0.00,44.0,WeatherDisplay:10.37,2013-06-10 02:22:00,
2013-06-09 19:27:00,58.4,54.5,29.85,WSW,252,7.8,10.4,87,0.00,BKN,,0.00,35.0,WeatherDisplay:10.37,2013-06-10 02:27:00,
2013-06-09 19:32:00,58.3,54.4,29.85,SW,225,2.5,5.8,87,0.00,BKN,,0.00,28.0,WeatherDisplay:10.37,2013-06-10 02:32:00,
2013-06-09 19:37:00,58.3,54.4,29.85,SW,235,9.3,11.5,87,0.00,BKN,,0.00,23.0,WeatherDisplay:10.37,2013-06-10 02:37:00,
2013-06-09 19:42:00,58.2,54.7,29.85,SSW,206,6.1,10.4,88,0.00,BKN,,0.00,16.0,WeatherDisplay:10.37,2013-06-10 02:42:00,
2013-06-09 19:47:00,58.2,54.7,29.85,SSW,204,5.3,11.5,88,0.00,BKN,,0.00,12.0,WeatherDisplay:10.37,2013-06-10 02:47:00,
2013-06-09 19:53:00,58.2,54.7,29.85,West,262,4.9,6.9,88,0.00,BKN,,0.00,11.0,WeatherDisplay:10.37,2013-06-10 02:53:00,
2013-06-09 19:58:00,58.2,54.7,29.85,SW,236,6.2,13.8,88,0.00,BKN,,0.00,7.0,WeatherDisplay:10.37,2013-06-10 02:58:00,
2013-06-09 20:03:00,58.2,54.7,29.85,SSW,210,7.1,10.4,88,0.00,BKN,,0.00,7.0,WeatherDisplay:10.37,2013-06-10 03:03:00,
2013-06-09 20:08:00,58.1,54.6,29.85,SW,231,4.1,5.8,88,0.00,BKN,,0.00,7.0,WeatherDisplay:10.37,2013-06-10 03:08:00,
2013-06-09 20:13:00,58.0,54.5,29.85,SSW,194,4.7,9.2,88,0.00,BKN,,0.00,5.0,WeatherDisplay:10.37,2013-06-10 03:13:00,
2013-06-09 20:18:00,58.1,54.9,29.85,WSW,237,4.4,7.0,89,0.00,OVC,,0.00,0.0,WeatherDisplay:10.37,2013-06-10 03:18:00,
2013-06-09 20:23:00,58.0,54.5,29.85,SSW,198,4.4,11.5,88,0.00,OVC,,0.00,0.0,WeatherDisplay:10.37,2013-06-10 03:23:00,
2013-06-09 20:28:00,58.0,54.8,29.86,SW,228,5.3,10.4,89,0.00,OVC,,0.00,0.0,WeatherDisplay:10.37,2013-06-10 03:28:00,
2013-06-09 20:33:00,58.0,54.5,29.85,SW,235,6.9,11.5,88,0.00,OVC,,0.00,0.0,WeatherDisplay:10.37,2013-06-10 03:33:00,
2013-06-09 20:38:00,57.9,54.4,29.85,SSW,195,6.2,10.4,88,0.00,OVC,,0.00,0.0,WeatherDisplay:10.37,2013-06-10 03:38:00,
2013-06-09 20:43:00,57.9,54.4,29.85,SW,228,6.8,10.4,88,0.00,OVC,,0.00,0.0,WeatherDisplay:10.37,2013-06-10 03:43:00,
2013-06-09 20:48:00,57.9,54.4,29.85,SSW,200,7.2,11.5,88,0.00,OVC,,0.00,0.0,WeatherDisplay:10.37,2013-06-10 03:48:00,
2013-06-09 20:53:00,57.9,54.4,29.85,WSW,253,8.2,11.5,88,0.00,OVC,,0.00,0.0,WeatherDisplay:10.37,2013-06-10 03:53:00,
2013-06-09 20:58:00,57.9,54.7,29.85,West,265,3.8,5.8,89,0.00,OVC,,0.00,0.0,WeatherDisplay:10.37,2013-06-10 03:58:00,
2013-06-09 21:01:00,57.8,54.6,29.85,SW,229,7.4,9.2,89,0.00,OVC,,0.00,0.0,WeatherDisplay:10.37,2013-06-10 04:01:00,
2013-06-09 21:06:00,57.9,54.7,29.85,WNW,285,6.9,12.7,89,0.00,OVC,,0.00,0.0,WeatherDisplay:10.37,2013-06-10 04:06:00,
2013-06-09 21:11:00,57.9,54.7,29.85,SW,221,8.8,11.5,89,0.00,OVC,,0.00,0.0,WeatherDisplay:10.37,2013-06-10 04:11:00,
2013-06-09 21:16:00,57.8,54.6,29.85,SW,227,7.6,11.5,89,0.00,OVC,,0.00,0.0,WeatherDisplay:10.37,2013-06-10 04:16:00,
2013-06-09 21:21:00,57.7,54.5,29.85,SW,225,7.6,9.2,89,0.00,OVC,,0.00,0.0,WeatherDisplay:10.37,2013-06-10 04:21:00,
2013-06-09 21:27:00,57.7,54.5,29.85,SW,232,9.1,16.1,89,0.00,OVC,,0.00,0.0,WeatherDisplay:10.37,2013-06-10 04:27:00,
2013-06-09 21:32:00,57.6,54.4,29.85,WSW,237,7.0,14.0,89,0.00,OVC,,0.00,0.0,WeatherDisplay:10.37,2013-06-10 04:32:00,
2013-06-09 21:37:00,57.6,54.4,29.86,SSW,213,5.3,6.9,89,0.00,OVC,,0.00,0.0,WeatherDisplay:10.37,2013-06-10 04:37:00,
2013-06-09 21:42:00,57.6,54.7,29.86,SW,234,3.6,6.0,90,0.00,OVC,,0.00,0.0,WeatherDisplay:10.37,2013-06-10 04:42:00,
2013-06-09 21:47:00,57.6,54.7,29.86,WSW,242,9.7,14.0,90,0.00,OVC,,0.00,0.0,WeatherDisplay:10.37,2013-06-10 04:47:00,
2013-06-09 21:52:00,57.6,55.3,29.85,SW,225,10.3,15.0,92,0.00,OVC,,0.00,0.0,WeatherDisplay:10.37,2013-06-10 04:52:00,
2013-06-09 21:57:00,57.6,54.7,29.85,WSW,245,3.3,4.6,90,0.00,OVC,,0.00,0.0,WeatherDisplay:10.37,2013-06-10 04:57:00,
2013-06-09 22:02:00,57.6,54.7,29.85,SW,235,10.2,15.0,90,0.00,OVC,,0.00,0.0,WeatherDisplay:10.37,2013-06-10 05:02:00,
2013-06-09 22:07:00,57.6,55.3,29.86,SW,217,9.0,12.7,92,0.00,OVC,,0.00,0.0,WeatherDisplay:10.37,2013-06-10 05:07:00,
2013-06-09 22:12:00,57.5,54.6,29.85,SSW,196,7.0,12.7,90,0.00,OVC,,0.00,0.0,WeatherDisplay:10.37,2013-06-10 05:12:00,
2013-06-09 22:17:00,57.6,54.7,29.86,SSW,193,5.2,5.8,90,0.00,OVC,,0.00,0.0,WeatherDisplay:10.37,2013-06-10 05:17:00,
2013-06-09 22:22:00,57.5,54.6,29.86,SW,225,6.6,9.2,90,0.00,OVC,,0.00,0.0,WeatherDisplay:10.37,2013-06-10 05:22:00,
2013-06-09 22:27:00,57.6,54.7,29.86,SW,225,3.3,5.8,90,0.00,OVC,,0.00,0.0,WeatherDisplay:10.37,2013-06-10 05:27:00,
2013-06-09 22:32:00,57.6,54.7,29.86,West,276,2.9,4.6,90,0.00,OVC,,0.00,0.0,WeatherDisplay:10.37,2013-06-10 05:32:00,
2013-06-09 22:37:00,57.6,54.7,29.86,WSW,239,3.7,8.1,90,0.00,OVC,,0.00,0.0,WeatherDisplay:10.37,2013-06-10 05:37:00,
2013-06-09 22:42:00,57.6,54.7,29.86,WSW,239,7.3,10.4,90,0.00,OVC,,0.00,0.0,WeatherDisplay:10.37,2013-06-10 05:42:00,
2013-06-09 22:47:00,57.6,55.3,29.85,WSW,248,4.1,10.4,92,0.00,OVC,,0.00,0.0,WeatherDisplay:10.37,2013-06-10 05:47:00,
2013-06-09 22:52:00,57.6,54.7,29.86,SW,231,8.6,12.7,90,0.00,OVC,,0.00,0.0,WeatherDisplay:10.37,2013-06-10 05:52:00,
2013-06-09 22:57:00,57.6,54.7,29.85,SSW,209,7.8,10.4,90,0.00,OVC,,0.00,0.0,WeatherDisplay:10.37,2013-06-10 05:57:00,
2013-06-09 23:02:00,57.7,54.8,29.86,SW,226,7.5,11.5,90,0.00,OVC,,0.00,0.0,WeatherDisplay:10.37,2013-06-10 06:02:00,
2013-06-09 23:07:00,57.6,54.4,29.86,SW,217,7.1,7.1,89,0.00,OVC,,0.00,0.0,WeatherDisplay:10.37,2013-06-10 06:07:00,
2013-06-09 23:12:00,57.6,54.4,29.86,West,268,3.9,8.1,89,0.00,OVC,,0.00,0.0,WeatherDisplay:10.37,2013-06-10 06:12:00,
2013-06-09 23:17:00,57.5,54.3,29.86,WSW,239,4.5,12.7,89,0.00,OVC,,0.00,0.0,WeatherDisplay:10.37,2013-06-10 06:17:00,
2013-06-09 23:22:00,57.4,54.2,29.87,SSW,202,5.0,11.5,89,0.00,OVC,,0.00,0.0,WeatherDisplay:10.37,2013-06-10 06:22:00,
2013-06-09 23:27:00,57.4,54.2,29.87,SSW,207,3.6,5.8,89,0.00,OVC,,0.00,0.0,WeatherDisplay:10.37,2013-06-10 06:27:00,
2013-06-09 23:32:00,57.4,54.2,29.87,SW,227,4.2,8.1,89,0.00,OVC,,0.00,0.0,WeatherDisplay:10.37,2013-06-10 06:32:00,
2013-06-09 23:38:00,57.5,54.3,29.87,SW,216,5.2,10.4,89,0.00,OVC,,0.00,0.0,WeatherDisplay:10.37,2013-06-10 06:38:00,
2013-06-09 23:43:00,57.4,54.2,29.87,SW,223,5.4,9.2,89,0.00,OVC,,0.00,0.0,WeatherDisplay:10.37,2013-06-10 06:43:00,
2013-06-09 23:48:00,57.4,54.2,29.87,SW,219,6.0,10.4,89,0.00,OVC,,0.00,0.0,WeatherDisplay:10.37,2013-06-10 06:48:00,
2013-06-09 23:53:00,57.5,54.3,29.87,NW,304,4.6,9.2,89,0.00,OVC,,0.00,0.0,WeatherDisplay:10.37,2013-06-10 06:53:00,
2013-06-09 23:58:00,57.4,54.2,29.87,WSW,237,0.5,3.5,89,0.00,OVC,,0.00,0.0,WeatherDisplay:10.37,2013-06-10 06:58:00,